Villa Flores, Puerto Rico
Current Conditions -  °F | °C
As of 9:32 AM on Saturday 25 Oct 2014 (Local Time) from TJNR Reporting Station
Broken Clouds Broken Clouds  
Wind Chill: 31°   Ceiling: 2400
Heat Index: 36°   Visibility: 10mi
Dew Point: 24°   Wind: 7mph
Humidity: 69%   Direction: 140°SE
Pressure: 29.99"   Gusts: NA
Location:  18.2667°N, 65.6476°W
Report Text: TJNR 251332Z AUTO 14006KT 10SM BKN024 BKN029 31/24 A2999 RMK AO2 T03060244 $
Loading
Personal Weather Stations






























Interactive Weather Map
Tropical Storm Tracking
New forecast layout! Learn more

10-Day Weather Forecast

Advertisements
Track Severe Weather on mobile